Time;durP1;ratioP1;P1;durP2;ratioP2;P2;SDS_P1;SDS_P2;PMS_P1;PMS_P2;Temp;Humidity;BMP_temperature;BMP_pressure;BME280_temperature;BME280_humidity;BME280_pressure;Samples;Min_cycle;Max_cycle;Signal;HPM_P1;HPM_P2
2021/08/04 00:02:00;;;;;;;;;;;;;;;15.61;100.00;100258.63;5146312;23;20319;-68
2021/08/04 00:04:44;;;;;;;;;;;;;;;15.58;100.00;100267.84;5038297;28;19928;-67
2021/08/04 00:07:27;;;;;;;;;;;;;;;15.59;100.00;100266.03;5037984;28;19928;-68
2021/08/04 00:10:12;;;;;;;;;;;;;;;15.62;100.00;100262.16;5039700;28;20317;-68
2021/08/04 00:12:56;;;;;;;;;;;;;;;15.61;100.00;100260.47;5058214;28;19982;-67
2021/08/04 00:15:40;;;;;;;;;;;;;;;15.59;100.00;100255.28;5057873;28;19939;-67
2021/08/04 00:18:24;;;;;;;;;;;;;;;15.62;100.00;100254.09;5058909;28;19966;-68
2021/08/04 00:21:08;;;;;;;;;;;;;;;15.58;100.00;100259.78;5061712;28;20368;-68
2021/08/04 00:23:52;;;;;;;;;;;;;;;15.57;100.00;100254.63;5061414;28;19923;-67
2021/08/04 00:26:36;;;;;;;;;;;;;;;15.60;100.00;100253.44;5061584;28;19927;-67
2021/08/04 00:29:19;;;;;;;;;;;;;;;15.59;100.00;100255.28;5061323;28;19923;-67
2021/08/04 00:32:04;;;;;;;;;;;;;;;15.59;100.00;100260.66;5061486;28;19923;-67
2021/08/04 00:34:48;;;;;;;;;;;;;;;15.61;100.00;100257.78;5061189;28;19924;-67
2021/08/04 00:37:32;;;;;;;;;;;;;;;15.57;100.00;100251.94;5061752;28;19975;-67
2021/08/04 00:40:16;;;;;;;;;;;;;;;15.58;100.00;100254.41;5061305;28;19973;-67
2021/08/04 00:43:00;;;;;;;;;;;;;;;15.58;100.00;100265.19;5076156;28;19923;-67
2021/08/04 00:45:43;;;;;;;;;;;;;;;15.61;100.00;100264.00;5061592;28;19969;-67
2021/08/04 00:48:27;;;;;;;;;;;;;;;15.62;100.00;100251.41;5060893;28;20038;-67
2021/08/04 00:51:11;;;;;;;;;;;;;;;15.60;100.00;100256.13;5060834;28;19923;-67
2021/08/04 00:53:55;;;;;;;;;;;;;;;15.58;100.00;100258.97;5061151;28;20285;-67
2021/08/04 00:56:39;;;;;;;;;;;;;;;15.62;100.00;100254.91;5061073;28;20418;-67
2021/08/04 00:59:23;;;;;;;;;;;;;;;15.57;100.00;100252.75;5061336;28;20384;-68
2021/08/04 01:02:10;;;;;;;;;;;;;;;15.57;100.00;100253.78;5060487;28;19923;-67
2021/08/04 01:04:55;;;;;;;;;;;;;;;15.57;100.00;100252.75;5060965;28;19973;-67
2021/08/04 01:07:44;;;;;;;;;;;;;;;15.62;100.00;100254.09;5060890;28;19928;-67
2021/08/04 01:10:28;;;;;;;;;;;;;;;15.58;100.00;100253.59;5074637;28;19923;-68
2021/08/04 01:13:12;;;;;;;;;;;;;;;15.53;100.00;100250.59;5060801;28;19927;-67
2021/08/04 01:16:03;;;;;;;;;;;;;;;15.53;100.00;100249.78;5074898;28;19928;-67
2021/08/04 01:19:07;;;;;;;;;;;;;;;15.53;100.00;100250.59;5060671;28;19923;-68
2021/08/04 01:22:01;;;;;;;;;;;;;;;15.52;100.00;100246.22;5074388;28;19923;-67
2021/08/04 01:24:49;;;;;;;;;;;;;;;15.48;100.00;100247.63;5074582;28;19967;-67
2021/08/04 01:27:33;;;;;;;;;;;;;;;15.47;100.00;100240.56;5060444;28;20293;-67
2021/08/04 01:30:17;;;;;;;;;;;;;;;15.47;100.00;100253.16;5059385;28;19990;-68
2021/08/04 01:33:01;;;;;;;;;;;;;;;15.41;100.00;100245.81;5060426;28;20011;-67
2021/08/04 01:35:45;;;;;;;;;;;;;;;15.42;100.00;100247.47;5060348;28;19939;-67
2021/08/04 01:38:29;;;;;;;;;;;;;;;15.41;100.00;100248.50;5060336;28;19923;-67
2021/08/04 01:41:13;;;;;;;;;;;;;;;15.41;100.00;100245.81;5060177;28;19943;-67
2021/08/04 01:43:57;;;;;;;;;;;;;;;15.41;100.00;100240.44;5059974;28;19924;-67
2021/08/04 01:46:41;;;;;;;;;;;;;;;15.42;100.00;100247.47;5060375;28;19962;-66
2021/08/04 01:49:25;;;;;;;;;;;;;;;15.37;100.00;100256.06;5060398;28;19985;-67
2021/08/04 01:52:09;;;;;;;;;;;;;;;15.35;100.00;100247.34;5059956;28;19923;-67
2021/08/04 01:54:54;;;;;;;;;;;;;;;15.34;100.00;100248.38;5060029;28;20349;-68
2021/08/04 01:57:38;;;;;;;;;;;;;;;15.35;100.00;100252.72;5059640;28;19970;-67
2021/08/04 02:00:22;;;;;;;;;;;;;;;15.31;100.00;100245.19;5059772;28;20073;-68
2021/08/04 02:03:09;;;;;;;;;;;;;;;15.33;100.00;100246.69;5059547;28;19927;-67
2021/08/04 02:05:53;;;;;;;;;;;;;;;15.33;100.00;100243.16;5059918;28;19955;-68
2021/08/04 02:08:38;;;;;;;;;;;;;;;15.29;100.00;100241.81;5059515;28;19981;-67
2021/08/04 02:11:23;;;;;;;;;;;;;;;15.29;100.00;100239.13;5059594;28;19969;-67
2021/08/04 02:14:06;;;;;;;;;;;;;;;15.26;100.00;100234.06;5073434;28;19927;-68
2021/08/04 02:16:57;;;;;;;;;;;;;;;15.27;100.00;100238.44;5073358;28;19924;-67
2021/08/04 02:19:42;;;;;;;;;;;;;;;15.29;100.00;100239.13;5059493;28;19923;-67
2021/08/04 02:22:35;;;;;;;;;;;;;;;15.32;100.00;100241.47;5059175;28;19928;-68
2021/08/04 02:25:29;;;;;;;;;;;;;;;15.27;100.00;100233.91;5073239;28;19923;-67
2021/08/04 02:28:14;;;;;;;;;;;;;;;15.28;100.00;100230.22;5059337;28;19927;-68
2021/08/04 02:30:57;;;;;;;;;;;;;;;15.22;100.00;100236.28;5058963;28;19923;-67
2021/08/04 02:33:42;;;;;;;;;;;;;;;15.20;100.00;100237.47;5059240;28;19923;-67
2021/08/04 02:36:26;;;;;;;;;;;;;;;15.21;100.00;100233.78;5059289;28;20396;-67
2021/08/04 02:39:10;;;;;;;;;;;;;;;15.23;100.00;100231.75;5059162;28;19923;-68
2021/08/04 02:41:54;;;;;;;;;;;;;;;15.20;100.00;100232.13;5058582;28;19963;-67
2021/08/04 02:44:38;;;;;;;;;;;;;;;15.18;100.00;100229.59;5059103;28;19963;-68
2021/08/04 02:47:22;;;;;;;;;;;;;;;15.18;100.00;100218.00;5059162;28;19928;-68
2021/08/04 02:50:07;;;;;;;;;;;;;;;15.15;100.00;100218.34;5059318;28;19978;-67
2021/08/04 02:52:51;;;;;;;;;;;;;;;15.10;100.00;100215.38;5058838;28;20368;-68
2021/08/04 02:55:35;;;;;;;;;;;;;;;15.12;100.00;100219.53;5059252;28;19924;-68
2021/08/04 02:58:19;;;;;;;;;;;;;;;15.11;100.00;100217.03;5058860;28;20289;-68
2021/08/04 03:01:06;;;;;;;;;;;;;;;15.13;100.00;100212.31;5058665;28;20335;-68
2021/08/04 03:03:50;;;;;;;;;;;;;;;15.12;100.00;100205.28;5058861;28;19950;-68
2021/08/04 03:06:34;;;;;;;;;;;;;;;15.12;100.00;100213.34;5059023;28;20015;-68
2021/08/04 03:09:18;;;;;;;;;;;;;;;15.07;100.00;100213.00;5059005;28;20419;-68
2021/08/04 03:12:02;;;;;;;;;;;;;;;15.09;100.00;100213.69;5058432;28;20392;-68
2021/08/04 03:14:46;;;;;;;;;;;;;;;15.11;100.00;100206.31;5058957;28;19928;-68
2021/08/04 03:17:30;;;;;;;;;;;;;;;15.09;100.00;100219.88;5058696;28;19939;-68
2021/08/04 03:20:14;;;;;;;;;;;;;;;15.10;100.00;100210.81;5058492;28;20062;-68
2021/08/04 03:22:58;;;;;;;;;;;;;;;15.10;100.00;100218.06;5058606;28;20138;-66
2021/08/04 03:25:41;;;;;;;;;;;;;;;15.06;100.00;100214.03;5058568;28;19966;-68
2021/08/04 03:28:25;;;;;;;;;;;;;;;15.10;100.00;100220.75;5058369;28;19927;-68
2021/08/04 03:31:09;;;;;;;;;;;;;;;15.09;100.00;100224.44;5058493;28;19923;-68
2021/08/04 03:33:53;;;;;;;;;;;;;;;15.06;100.00;100224.75;5058245;28;19926;-68
2021/08/04 03:36:37;;;;;;;;;;;;;;;15.07;100.00;100226.44;5058437;28;20040;-68
2021/08/04 03:39:21;;;;;;;;;;;;;;;15.05;100.00;100225.78;5058438;28;19973;-67
2021/08/04 03:42:05;;;;;;;;;;;;;;;15.04;100.00;100233.00;5058068;28;19923;-68
2021/08/04 03:44:49;;;;;;;;;;;;;;;15.04;100.00;100233.00;5058127;28;19922;-68
2021/08/04 03:47:33;;;;;;;;;;;;;;;15.02;100.00;100234.19;5058044;28;20008;-67
2021/08/04 03:50:16;;;;;;;;;;;;;;;15.00;100.00;100237.03;5058634;28;20023;-68
2021/08/04 03:53:00;;;;;;;;;;;;;;;14.99;100.00;100231.84;5058443;28;19970;-67
2021/08/04 03:55:44;;;;;;;;;;;;;;;15.00;100.00;100225.47;5061982;28;19966;-67
2021/08/04 03:58:28;;;;;;;;;;;;;;;14.99;100.00;100226.50;5062541;28;19959;-68
2021/08/04 04:01:12;;;;;;;;;;;;;;;14.99;100.00;100237.22;5061705;28;20403;-68
2021/08/04 04:03:56;;;;;;;;;;;;;;;15.00;100.00;100233.53;5062111;28;19931;-68
2021/08/04 04:06:40;;;;;;;;;;;;;;;14.99;100.00;100234.53;5061955;28;19924;-68
2021/08/04 04:09:24;;;;;;;;;;;;;;;14.99;100.00;100237.22;5062018;28;19962;-67
2021/08/04 04:12:08;;;;;;;;;;;;;;;14.97;100.00;100237.38;5061939;28;20365;-67
2021/08/04 04:14:52;;;;;;;;;;;;;;;14.97;100.00;100244.59;5061919;28;19969;-67
2021/08/04 04:17:36;;;;;;;;;;;;;;;14.99;100.00;100240.72;5061870;28;20022;-68
2021/08/04 04:20:20;;;;;;;;;;;;;;;14.97;100.00;100241.91;5061627;28;20349;-67
2021/08/04 04:23:04;;;;;;;;;;;;;;;15.04;100.00;100245.59;5062067;28;19925;-68
2021/08/04 04:25:47;;;;;;;;;;;;;;;15.07;100.00;100242.53;5061398;28;19924;-67
2021/08/04 04:28:32;;;;;;;;;;;;;;;15.05;100.00;100244.56;5061338;28;20297;-68
2021/08/04 04:31:15;;;;;;;;;;;;;;;15.12;100.00;100242.88;5061296;28;19923;-67
2021/08/04 04:33:59;;;;;;;;;;;;;;;15.10;100.00;100258.34;5061865;28;19961;-68
2021/08/04 04:36:43;;;;;;;;;;;;;;;15.13;100.00;100249.91;5061222;28;19923;-67
2021/08/04 04:39:27;;;;;;;;;;;;;;;15.12;100.00;100256.31;5061351;28;19962;-68
2021/08/04 04:42:11;;;;;;;;;;;;;;;15.17;100.00;100253.91;5061052;28;19923;-68
2021/08/04 04:44:55;;;;;;;;;;;;;;;15.16;100.00;100253.09;5061352;28;20065;-68
2021/08/04 04:47:39;;;;;;;;;;;;;;;15.22;100.00;100251.56;5061292;28;20392;-67
2021/08/04 04:50:23;;;;;;;;;;;;;;;15.19;100.00;100246.56;5061149;28;19967;-68
2021/08/04 04:53:07;;;;;;;;;;;;;;;15.21;100.00;100255.28;5061189;28;19927;-68
2021/08/04 04:55:51;;;;;;;;;;;;;;;15.19;100.00;100251.94;5061113;28;19971;-67
2021/08/04 04:58:35;;;;;;;;;;;;;;;15.20;100.00;100249.03;5061373;28;19924;-68
2021/08/04 05:01:18;;;;;;;;;;;;;;;15.21;100.00;100247.22;5060850;28;19923;-67
2021/08/04 05:04:02;;;;;;;;;;;;;;;15.24;100.00;100250.38;5060902;28;19924;-68
2021/08/04 05:06:46;;;;;;;;;;;;;;;15.23;100.00;100255.94;5060827;28;20305;-68
2021/08/04 05:09:30;;;;;;;;;;;;;;;15.26;100.00;100253.72;5060878;28;19923;-67
2021/08/04 05:12:14;;;;;;;;;;;;;;;15.25;100.00;100254.75;5060594;28;20289;-66
2021/08/04 05:14:58;;;;;;;;;;;;;;;15.26;100.00;100260.94;5060788;28;19970;-68
2021/08/04 05:17:44;;;;;;;;;;;;;;;15.25;100.00;100254.75;5060936;28;19942;-67
2021/08/04 05:20:30;;;;;;;;;;;;;;;15.27;100.00;100255.41;5074477;28;19924;-67
2021/08/04 05:23:13;;;;;;;;;;;;;;;15.29;100.00;100257.94;5060439;28;20066;-67
2021/08/04 05:25:57;;;;;;;;;;;;;;;15.31;100.00;100256.75;5060538;28;19923;-67
2021/08/04 05:28:41;;;;;;;;;;;;;;;15.33;100.00;100260.13;5060459;28;19966;-68
2021/08/04 05:31:25;;;;;;;;;;;;;;;15.32;100.00;100258.41;5060059;28;19923;-67
2021/08/04 05:34:09;;;;;;;;;;;;;;;15.35;100.00;100270.66;5075546;28;19923;-67
2021/08/04 05:36:56;;;;;;;;;;;;;;;15.36;100.00;100273.19;5074557;28;20011;-68
2021/08/04 05:39:40;;;;;;;;;;;;;;;15.43;100.00;100265.28;5075436;28;19923;-68
2021/08/04 05:42:24;;;;;;;;;;;;;;;15.47;100.00;100263.91;5075035;28;19924;-67
2021/08/04 05:45:08;;;;;;;;;;;;;;;15.49;100.00;100267.28;5060508;28;19924;-68
2021/08/04 05:47:52;;;;;;;;;;;;;;;15.55;100.00;100255.81;5059753;28;19977;-68
2021/08/04 05:50:35;;;;;;;;;;;;;;;15.61;100.00;100260.47;5060055;28;20285;-67
2021/08/04 05:53:19;;;;;;;;;;;;;;;15.69;100.00;100255.88;5060055;28;19924;-68
2021/08/04 05:56:03;;;;;;;;;;;;;;;15.76;100.00;100257.69;5060003;28;20296;-67
2021/08/04 05:58:47;;;;;;;;;;;;;;;15.82;100.00;100253.44;5059962;28;20328;-68
2021/08/04 06:01:31;;;;;;;;;;;;;;;15.88;100.00;100260.81;5068592;22;19931;-67
2021/08/04 06:04:15;;;;;;;;;;;;;;;15.93;100.00;100259.25;5059850;28;19927;-68
2021/08/04 06:06:59;;;;;;;;;;;;;;;16.02;100.00;100254.66;5059373;28;20407;-68
2021/08/04 06:09:43;;;;;;;;;;;;;;;16.06;100.00;100259.50;5059017;28;19986;-68
2021/08/04 06:12:27;;;;;;;;;;;;;;;16.13;100.00;100254.22;5058901;28;19924;-68
2021/08/04 06:15:11;;;;;;;;;;;;;;;16.26;100.00;100254.50;5058859;28;19926;-68
2021/08/04 06:17:54;;;;;;;;;;;;;;;16.27;100.00;100256.97;5058212;28;19969;-66
2021/08/04 06:20:38;;;;;;;;;;;;;;;16.34;100.00;100257.94;5058501;28;20446;-66
2021/08/04 06:23:22;;;;;;;;;;;;;;;16.47;100.00;100255.50;5058571;28;20053;-65
2021/08/04 06:26:06;;;;;;;;;;;;;;;16.60;100.00;100257.56;5058408;28;19924;-66
2021/08/04 06:28:50;;;;;;;;;;;;;;;16.68;100.00;100252.94;5058587;28;20372;-67
2021/08/04 06:31:34;;;;;;;;;;;;;;;16.68;100.00;100241.34;5058314;28;19962;-66
2021/08/04 06:34:18;;;;;;;;;;;;;;;16.79;100.00;100238.19;5058594;28;20419;-66
2021/08/04 06:37:02;;;;;;;;;;;;;;;16.75;100.00;100248.50;5058276;28;20384;-66
2021/08/04 06:39:45;;;;;;;;;;;;;;;16.80;100.00;100248.75;5072441;28;19993;-66
2021/08/04 06:42:29;;;;;;;;;;;;;;;16.87;100.00;100248.88;5072078;28;19963;-66
2021/08/04 06:45:13;;;;;;;;;;;;;;;16.97;100.00;100249.47;5072545;28;19939;-66
2021/08/04 06:47:57;;;;;;;;;;;;;;;17.01;100.00;100243.47;5058201;28;19928;-66
2021/08/04 06:50:41;;;;;;;;;;;;;;;16.99;100.00;100253.63;5058315;28;20018;-66
2021/08/04 06:53:25;;;;;;;;;;;;;;;17.17;100.00;100242.47;5058212;28;20341;-66
2021/08/04 06:56:09;;;;;;;;;;;;;;;17.37;100.00;100249.81;5058094;28;19938;-67
2021/08/04 06:58:53;;;;;;;;;;;;;;;17.44;98.91;100255.28;5058226;28;19978;-66
2021/08/04 07:01:37;;;;;;;;;;;;;;;17.44;99.44;100258.84;5058104;28;19938;-67
2021/08/04 07:04:21;;;;;;;;;;;;;;;17.41;97.64;100259.19;5057757;28;19924;-66
2021/08/04 07:07:05;;;;;;;;;;;;;;;17.27;98.08;100262.72;5058002;28;19987;-66
2021/08/04 07:09:49;;;;;;;;;;;;;;;17.37;99.37;100263.31;5058263;28;19946;-66
2021/08/04 07:12:32;;;;;;;;;;;;;;;17.48;98.66;100265.50;5057622;28;19963;-67
2021/08/04 07:15:16;;;;;;;;;;;;;;;17.54;95.00;100263.91;5057715;28;20397;-67
2021/08/04 07:18:04;;;;;;;;;;;;;;;17.69;96.46;100270.13;5057973;28;19922;-67
2021/08/04 07:20:48;;;;;;;;;;;;;;;17.78;93.60;100269.81;5058675;28;19982;-67
2021/08/04 07:23:32;;;;;;;;;;;;;;;17.88;93.95;100264.97;5057726;28;20293;-67
2021/08/04 07:26:17;;;;;;;;;;;;;;;17.86;91.19;100269.72;5057878;28;20320;-67
2021/08/04 07:29:01;;;;;;;;;;;;;;;18.10;91.96;100257.72;5059797;28;19969;-67
2021/08/04 07:31:46;;;;;;;;;;;;;;;18.29;93.12;100257.09;5061984;28;20289;-67
2021/08/04 07:34:30;;;;;;;;;;;;;;;18.12;90.99;100256.47;5061840;28;19971;-67
2021/08/04 07:37:13;;;;;;;;;;;;;;;18.16;93.39;100254.25;5061643;28;19971;-67
2021/08/04 07:39:57;;;;;;;;;;;;;;;18.41;91.41;100256.38;5062000;28;20084;-67
2021/08/04 07:42:41;;;;;;;;;;;;;;;18.34;87.76;100257.34;5062075;28;19923;-66
2021/08/04 07:45:25;;;;;;;;;;;;;;;18.61;90.86;100249.28;5061828;28;19923;-66
2021/08/04 07:48:09;;;;;;;;;;;;;;;18.82;88.45;100266.28;5061482;28;19977;-67
2021/08/04 07:50:53;;;;;;;;;;;;;;;18.87;84.69;100257.59;5061920;28;19924;-67
2021/08/04 07:53:37;;;;;;;;;;;;;;;18.91;84.45;100261.56;5061386;28;19924;-67
2021/08/04 07:56:23;;;;;;;;;;;;;;;18.97;83.63;100260.78;5061361;28;20053;-67
2021/08/04 07:59:06;;;;;;;;;;;;;;;19.14;83.37;100256.69;5061490;28;19924;-66
2021/08/04 08:01:50;;;;;;;;;;;;;;;19.25;83.49;100258.88;5061184;28;19923;-66
2021/08/04 08:04:34;;;;;;;;;;;;;;;18.79;79.34;100246.94;5061176;28;20007;-67
2021/08/04 08:07:18;;;;;;;;;;;;;;;19.15;79.77;100247.56;5061168;28;20315;-66
2021/08/04 08:10:03;;;;;;;;;;;;;;;19.29;76.95;100260.16;5061336;28;19922;-66
2021/08/04 08:12:47;;;;;;;;;;;;;;;19.41;74.72;100258.56;5061115;28;20070;-67
2021/08/04 08:15:31;;;;;;;;;;;;;;;19.14;78.79;100262.09;5075395;28;19954;-67
2021/08/04 08:18:15;;;;;;;;;;;;;;;19.65;77.98;100266.13;5061199;28;20008;-67
2021/08/04 08:20:59;;;;;;;;;;;;;;;19.99;74.77;100261.47;5060881;28;19927;-67
2021/08/04 08:23:43;;;;;;;;;;;;;;;20.37;74.39;100256.34;5075384;28;19922;-66
2021/08/04 08:26:27;;;;;;;;;;;;;;;20.59;71.98;100245.09;5061120;28;20020;-67
2021/08/04 08:29:11;;;;;;;;;;;;;;;20.74;72.61;100248.41;5060875;28;19927;-67
2021/08/04 08:31:55;;;;;;;;;;;;;;;20.74;70.27;100253.03;5060587;28;19923;-67
2021/08/04 08:34:39;;;;;;;;;;;;;;;20.45;67.39;100251.59;5060982;28;19961;-67
2021/08/04 08:37:22;;;;;;;;;;;;;;;20.35;66.99;100250.31;5060577;28;20289;-67
2021/08/04 08:40:07;;;;;;;;;;;;;;;20.22;67.03;100255.72;5074546;28;20003;-66
2021/08/04 08:42:52;;;;;;;;;;;;;;;20.15;68.44;100236.75;5060432;28;19924;-66
2021/08/04 08:45:36;;;;;;;;;;;;;;;20.73;65.55;100237.81;5060671;28;20287;-67
2021/08/04 08:48:20;;;;;;;;;;;;;;;20.92;65.86;100239.69;5060637;28;19927;-67
2021/08/04 08:51:04;;;;;;;;;;;;;;;21.48;64.54;100239.72;5060400;28;19946;-67
2021/08/04 08:53:50;;;;;;;;;;;;;;;21.06;64.18;100230.50;5060633;28;20301;-67
2021/08/04 08:56:34;;;;;;;;;;;;;;;21.15;65.67;100240.06;5060804;28;19939;-66
2021/08/04 08:59:18;;;;;;;;;;;;;;;20.97;67.36;100239.88;5060532;28;19927;-67
2021/08/04 09:02:04;;;;;;;;;;;;;;;20.86;68.09;100230.53;5060051;28;19928;-66
2021/08/04 09:05:00;;;;;;;;;;;;;;;21.27;68.01;100240.00;5074644;28;19927;-66
2021/08/04 09:07:45;;;;;;;;;;;;;;;21.71;68.59;100237.34;5074242;28;20023;-66
2021/08/04 09:10:36;;;;;;;;;;;;;;;21.40;65.77;100245.38;5060557;28;19923;-67
2021/08/04 09:13:28;;;;;;;;;;;;;;;21.08;66.45;100241.94;5060909;28;19924;-67
2021/08/04 09:16:15;;;;;;;;;;;;;;;20.65;69.30;100238.88;5060157;28;19965;-67
2021/08/04 09:18:59;;;;;;;;;;;;;;;20.98;69.81;100245.09;5074042;28;19931;-66
2021/08/04 09:21:43;;;;;;;;;;;;;;;21.23;69.29;100241.50;5059825;28;19967;-67
2021/08/04 09:24:27;;;;;;;;;;;;;;;21.45;65.98;100226.59;5059666;28;19983;-66
2021/08/04 09:27:11;;;;;;;;;;;;;;;21.59;64.86;100221.97;5059834;28;19927;-66
2021/08/04 09:29:58;;;;;;;;;;;;;;;21.97;65.89;100215.50;5060246;28;19970;-67
2021/08/04 09:32:42;;;;;;;;;;;;;;;22.21;64.60;100222.84;5059419;28;20020;-67
2021/08/04 09:35:26;;;;;;;;;;;;;;;22.39;63.14;100214.78;5060170;28;20292;-67
2021/08/04 09:38:10;;;;;;;;;;;;;;;22.03;60.74;100220.06;5074107;28;19965;-67
2021/08/04 09:41:18;;;;;;;;;;;;;;;21.80;63.07;100210.81;5059790;28;20388;-67
2021/08/04 09:44:02;;;;;;;;;;;;;;;22.06;61.02;100206.06;5073637;28;19962;-67
2021/08/04 09:46:46;;;;;;;;;;;;;;;22.29;59.44;100197.31;5060410;28;19924;-67
2021/08/04 09:49:30;;;;;;;;;;;;;;;22.51;59.14;100204.06;5060252;28;20373;-66
2021/08/04 09:52:14;;;;;;;;;;;;;;;21.96;61.47;100192.13;5058733;28;19924;-67
2021/08/04 09:55:11;;;;;;;;;;;;;;;22.67;58.93;100207.06;5073532;28;19926;-67
2021/08/04 09:57:56;;;;;;;;;;;;;;;22.85;56.54;100207.09;5059506;28;19922;-66
2021/08/04 10:00:40;;;;;;;;;;;;;;;22.49;56.22;100212.44;5059372;28;19977;-67
2021/08/04 10:03:24;;;;;;;;;;;;;;;22.50;57.37;100200.50;5059648;28;19924;-66
2021/08/04 10:06:08;;;;;;;;;;;;;;;23.21;56.44;100188.09;5058933;28;20325;-67
2021/08/04 10:08:52;;;;;;;;;;;;;;;23.77;55.10;100180.47;5059171;28;20034;-66
2021/08/04 10:11:40;;;;;;;;;;;;;;;24.18;52.94;100170.41;5058827;28;20294;-66
2021/08/04 10:14:24;;;;;;;;;;;;;;;24.66;54.40;100164.78;5059552;28;20318;-67
2021/08/04 10:17:08;;;;;;;;;;;;;;;25.05;51.57;100161.31;5058987;28;19986;-66
2021/08/04 10:19:52;;;;;;;;;;;;;;;25.97;49.53;100161.03;5059622;28;20372;-67
2021/08/04 10:22:36;;;;;;;;;;;;;;;26.61;47.04;100155.03;5058749;28;19978;-66
2021/08/04 10:25:20;;;;;;;;;;;;;;;26.77;43.15;100162.41;5059297;28;19935;-67
2021/08/04 10:28:04;;;;;;;;;;;;;;;27.83;41.89;100142.44;5058841;28;19970;-67
2021/08/04 10:30:48;;;;;;;;;;;;;;;28.76;39.46;100144.59;5058142;28;19928;-66
2021/08/04 10:33:32;;;;;;;;;;;;;;;29.16;38.48;100147.59;5059140;28;19939;-67
2021/08/04 10:36:16;;;;;;;;;;;;;;;30.14;37.22;100139.94;5058576;28;19924;-67
2021/08/04 10:39:05;;;;;;;;;;;;;;;30.15;34.77;100147.94;5058465;28;19923;-67
2021/08/04 10:42:03;;;;;;;;;;;;;;;30.35;34.71;100144.34;5058222;28;19924;-67
2021/08/04 10:44:48;;;;;;;;;;;;;;;28.74;35.89;100146.78;5044486;28;21901;-67
2021/08/04 10:47:32;;;;;;;;;;;;;;;28.40;37.71;100149.00;5058293;28;19927;-67
2021/08/04 10:50:16;;;;;;;;;;;;;;;29.12;36.42;100147.31;5058157;28;20310;-67
2021/08/04 10:53:01;;;;;;;;;;;;;;;30.46;33.63;100143.25;5072087;28;19924;-67
2021/08/04 10:55:55;;;;;;;;;;;;;;;30.99;31.15;100139.88;5072207;28;19939;-67
2021/08/04 10:58:38;;;;;;;;;;;;;;;31.51;33.12;100131.97;5058139;28;19927;-66
2021/08/04 11:01:23;;;;;;;;;;;;;;;31.57;32.34;100128.91;5057755;28;19996;-67
2021/08/04 11:04:10;;;;;;;;;;;;;;;30.58;32.55;100128.09;5072132;28;19978;-66
2021/08/04 11:07:10;;;;;;;;;;;;;;;31.18;32.74;100130.75;5057999;28;20011;-68
2021/08/04 11:09:56;;;;;;;;;;;;;;;33.05;30.37;100122.44;5072381;28;19963;-67
2021/08/04 11:12:41;;;;;;;;;;;;;;;33.17;29.00;100122.88;5072221;28;19970;-67
2021/08/04 11:15:25;;;;;;;;;;;;;;;32.96;28.85;100126.16;5058253;28;20445;-67
2021/08/04 11:18:12;;;;;;;;;;;;;;;33.30;29.25;100126.88;5058166;28;19962;-67
2021/08/04 11:21:10;;;;;;;;;;;;;;;33.23;29.63;100127.22;5058217;28;19923;-68
2021/08/04 11:23:54;;;;;;;;;;;;;;;34.18;29.38;100109.25;5057897;28;19924;-68
2021/08/04 11:26:38;;;;;;;;;;;;;;;35.43;27.40;100104.16;5057987;28;19923;-67
2021/08/04 11:29:41;;;;;;;;;;;;;;;35.22;26.61;100105.72;5058029;28;19927;-68
2021/08/04 11:32:26;;;;;;;;;;;;;;;33.97;26.36;100105.19;5057973;28;19923;-67
2021/08/04 11:35:16;;;;;;;;;;;;;;;33.92;28.17;100113.56;5058067;28;19923;-67
2021/08/04 11:38:00;;;;;;;;;;;;;;;34.20;26.38;100109.78;5057972;28;19927;-67
2021/08/04 11:40:44;;;;;;;;;;;;;;;34.07;25.61;100121.59;5057949;28;19924;-67
2021/08/04 11:43:28;;;;;;;;;;;;;;;33.68;27.14;100123.03;5057904;28;20400;-67
2021/08/04 11:46:31;;;;;;;;;;;;;;;34.49;27.42;100124.25;5057862;28;20021;-67
2021/08/04 11:49:19;;;;;;;;;;;;;;;34.67;26.95;100114.25;5071607;28;19928;-67
2021/08/04 11:52:04;;;;;;;;;;;;;;;34.69;25.83;100115.56;5058024;28;20411;-67
2021/08/04 11:55:03;;;;;;;;;;;;;;;34.44;27.20;100116.03;5058040;28;20019;-66
2021/08/04 11:57:46;;;;;;;;;;;;;;;32.38;27.97;100118.19;5071717;28;19966;-66
2021/08/04 12:00:31;;;;;;;;;;;;;;;33.08;28.31;100117.47;5057498;28;19923;-67
2021/08/04 12:03:18;;;;;;;;;;;;;;;33.26;26.82;100112.81;5059016;28;19969;-67
2021/08/04 12:06:15;;;;;;;;;;;;;;;31.99;28.25;100109.09;5057600;28;20000;-67
2021/08/04 12:09:15;;;;;;;;;;;;;;;32.18;29.76;100102.56;5057503;28;19927;-67
2021/08/04 12:11:59;;;;;;;;;;;;;;;32.53;27.82;100094.03;5057375;28;19926;-67
2021/08/04 12:14:44;;;;;;;;;;;;;;;30.97;28.75;100109.03;5058635;28;19923;-67
2021/08/04 12:17:31;;;;;;;;;;;;;;;31.36;30.81;100110.81;5061778;28;19923;-67
2021/08/04 12:20:22;;;;;;;;;;;;;;;31.19;30.43;100115.03;5061649;28;19923;-67
2021/08/04 12:23:10;;;;;;;;;;;;;;;31.06;30.44;100101.84;5061214;28;20005;-67
2021/08/04 12:25:58;;;;;;;;;;;;;;;30.51;31.06;100097.28;5060792;28;19971;-67
2021/08/04 12:28:42;;;;;;;;;;;;;;;31.02;32.44;100104.34;5061085;28;19974;-68
2021/08/04 12:31:26;;;;;;;;;;;;;;;31.47;30.70;100100.59;5060854;28;19939;-67
2021/08/04 12:34:14;;;;;;;;;;;;;;;31.76;29.68;100098.78;5060645;28;19922;-67
2021/08/04 12:36:59;;;;;;;;;;;;;;;31.41;30.03;100102.56;5061503;28;20038;-67
2021/08/04 12:39:43;;;;;;;;;;;;;;;30.47;31.53;100101.72;5061253;28;20274;-67
2021/08/04 12:42:27;;;;;;;;;;;;;;;30.00;33.14;100095.66;5060655;28;19970;-68
2021/08/04 12:45:24;;;;;;;;;;;;;;;29.83;33.49;100098.91;5060725;28;19939;-68
2021/08/04 12:48:08;;;;;;;;;;;;;;;28.96;35.04;100098.09;5060949;28;20305;-67
2021/08/04 12:50:53;;;;;;;;;;;;;;;27.87;35.51;100093.44;5060260;28;20331;-68
2021/08/04 12:53:37;;;;;;;;;;;;;;;28.18;35.58;100101.66;5074545;28;19966;-68
2021/08/04 12:56:29;;;;;;;;;;;;;;;27.79;36.54;100092.00;5074419;28;19957;-68
2021/08/04 12:59:15;;;;;;;;;;;;;;;27.48;38.44;100097.38;5060210;28;20020;-67
2021/08/04 13:02:08;;;;;;;;;;;;;;;27.52;36.03;100087.59;5060821;28;20450;-68
2021/08/04 13:05:05;;;;;;;;;;;;;;;27.83;35.44;100071.19;5060448;28;19973;-67
2021/08/04 13:07:49;;;;;;;;;;;;;;;27.70;34.45;100077.06;5060434;28;20069;-66
2021/08/04 13:10:33;;;;;;;;;;;;;;;27.74;36.03;100078.22;5060278;28;19966;-69
2021/08/04 13:13:17;;;;;;;;;;;;;;;27.36;35.69;100086.59;5074631;28;19923;-67
2021/08/04 13:16:01;;;;;;;;;;;;;;;27.75;34.43;100074.44;5059908;28;19923;-67
2021/08/04 13:18:45;;;;;;;;;;;;;;;28.18;34.36;100074.25;5060137;28;20398;-67
2021/08/04 13:21:29;;;;;;;;;;;;;;;27.84;35.56;100072.84;5060028;28;19969;-67
2021/08/04 13:24:26;;;;;;;;;;;;;;;27.83;34.24;100065.72;5059908;28;19923;-67
2021/08/04 13:27:26;;;;;;;;;;;;;;;28.20;34.59;100063.84;5058960;28;19978;-67
2021/08/04 13:30:14;;;;;;;;;;;;;;;28.35;35.29;100074.94;5060006;28;20289;-66
2021/08/04 13:32:59;;;;;;;;;;;;;;;27.38;36.94;100065.25;5059797;28;19927;-67
2021/08/04 13:35:44;;;;;;;;;;;;;;;27.63;36.17;100060.03;5060251;28;20054;-67
2021/08/04 13:38:28;;;;;;;;;;;;;;;27.64;36.41;100067.16;5059801;28;19923;-67
2021/08/04 13:41:12;;;;;;;;;;;;;;;27.84;37.16;100064.63;5059387;28;19974;-68
2021/08/04 13:43:56;;;;;;;;;;;;;;;28.03;35.17;100057.66;5073667;28;19979;-67
2021/08/04 13:46:40;;;;;;;;;;;;;;;27.70;34.19;100048.84;5059772;28;19928;-67
2021/08/04 13:49:24;;;;;;;;;;;;;;;27.84;33.19;100050.13;5059557;28;19927;-67
2021/08/04 13:52:08;;;;;;;;;;;;;;;27.93;34.44;100054.84;5059278;28;19923;-68
2021/08/04 13:54:52;;;;;;;;;;;;;;;27.73;35.27;100049.19;5059171;28;20013;-67
2021/08/04 13:57:36;;;;;;;;;;;;;;;27.94;35.23;100051.00;5059505;28;19970;-67
2021/08/04 14:00:21;;;;;;;;;;;;;;;28.24;35.01;100051.25;5059191;28;20404;-67
2021/08/04 14:03:08;;;;;;;;;;;;;;;28.53;34.78;100049.81;5059001;28;20426;-66